createdAt,value
2023-04-04T00:00:54.454Z,62.01
2023-04-04T00:03:25.526Z,61.95
2023-04-04T00:05:53.754Z,62.34
2023-04-04T00:08:31.603Z,61.65
2023-04-04T00:11:00.358Z,61.94
2023-04-04T00:13:30.676Z,62.48
2023-04-04T00:15:59.135Z,62.59
2023-04-04T00:18:26.020Z,62.92
2023-04-04T00:20:52.870Z,63.75
2023-04-04T00:23:19.759Z,63.83
2023-04-04T00:25:50.133Z,64.52
2023-04-04T00:28:16.984Z,64.69
2023-04-04T00:30:43.900Z,64.65
2023-04-04T00:33:14.475Z,64.16
2023-04-04T00:35:41.951Z,63.97
2023-04-04T00:38:08.833Z,63.70
2023-04-04T00:40:53.097Z,64.11
2023-04-04T00:43:24.135Z,64.03
2023-04-04T00:45:52.941Z,64.55
2023-04-04T00:48:21.042Z,64.64
2023-04-04T00:53:14.509Z,64.40
2023-04-04T00:55:43.902Z,63.77
2023-04-04T00:58:12.124Z,64.64
2023-04-04T01:00:40.200Z,63.68
2023-04-04T01:03:13.938Z,63.58
2023-04-04T01:05:47.563Z,63.76
2023-04-04T01:08:26.735Z,63.00
2023-04-04T01:10:53.506Z,62.35
2023-04-04T01:13:21.486Z,63.73
2023-04-04T01:18:17.491Z,63.95
2023-04-04T01:20:50.284Z,63.29
2023-04-04T01:23:18.208Z,63.19
2023-04-04T01:28:15.423Z,63.67
2023-04-04T01:30:44.265Z,63.64
2023-04-04T01:33:19.510Z,63.62
2023-04-04T01:35:55.030Z,63.56
2023-04-04T01:38:33.888Z,64.38
2023-04-04T01:41:04.098Z,64.36
2023-04-04T01:43:31.762Z,64.37
2023-04-04T01:46:00.136Z,65.01
2023-04-04T01:48:27.813Z,64.41
2023-04-04T01:50:58.388Z,63.27
2023-04-04T01:53:29.106Z,62.63
2023-04-04T01:55:56.229Z,63.46
2023-04-04T01:58:27.256Z,62.23
2023-04-04T02:00:54.116Z,63.27
2023-04-04T02:03:21.042Z,63.51
2023-04-04T02:08:15.658Z,63.52
2023-04-04T02:10:42.807Z,63.44
2023-04-04T02:13:09.823Z,63.91
2023-04-04T02:15:39.180Z,63.86
2023-04-04T02:18:06.750Z,63.63
2023-04-04T02:20:33.617Z,64.18
2023-04-04T02:23:00.558Z,64.95
2023-04-04T02:25:28.145Z,63.82
2023-04-04T02:27:55.140Z,64.60
2023-04-04T02:30:21.880Z,65.20
2023-04-04T02:32:50.133Z,63.48
2023-04-04T02:35:18.275Z,65.02
2023-04-04T02:37:47.738Z,64.52
2023-04-04T02:40:14.546Z,64.76
2023-04-04T02:42:45.316Z,63.77
2023-04-04T02:45:14.891Z,63.69
2023-04-04T02:47:43.188Z,63.27
2023-04-04T02:50:11.673Z,63.95
2023-04-04T02:52:40.878Z,63.41
2023-04-04T02:55:08.719Z,65.94
2023-04-04T02:57:35.751Z,63.83
2023-04-04T03:00:05.466Z,63.36
2023-04-04T03:02:34.780Z,63.58
2023-04-04T03:05:02.233Z,64.08
2023-04-04T03:07:29.788Z,63.78
2023-04-04T03:09:56.982Z,64.67
2023-04-04T03:12:24.634Z,63.73
2023-04-04T03:14:51.450Z,63.76
2023-04-04T03:17:18.610Z,64.12
2023-04-04T03:19:46.740Z,62.26
2023-04-04T03:22:17.078Z,62.79
2023-04-04T03:27:15.527Z,62.44
2023-04-04T03:29:42.685Z,62.66
2023-04-04T03:32:09.487Z,63.10
2023-04-04T03:34:36.507Z,62.97
2023-04-04T03:37:03.425Z,63.06
2023-04-04T03:39:30.559Z,63.18
2023-04-04T03:42:01.180Z,63.53
2023-04-04T03:44:31.488Z,63.12
2023-04-04T03:46:58.467Z,63.11
2023-04-04T03:49:25.706Z,63.80
2023-04-04T03:51:52.491Z,63.98
2023-04-04T03:54:19.321Z,63.58
2023-04-04T03:56:46.224Z,63.56
2023-04-04T03:59:13.746Z,63.41
2023-04-04T04:01:43.330Z,64.16
2023-04-04T04:04:10.103Z,64.07
2023-04-04T04:06:37.908Z,64.01
2023-04-04T04:09:05.156Z,63.63
2023-04-04T04:11:32.579Z,65.09
2023-04-04T04:14:01.217Z,65.70
2023-04-04T04:16:28.503Z,66.38
2023-04-04T04:18:55.293Z,66.00
2023-04-04T04:21:22.109Z,66.76
2023-04-04T04:26:15.383Z,67.31
2023-04-04T04:28:42.371Z,68.89
2023-04-04T04:31:11.500Z,69.67
2023-04-04T04:33:38.267Z,70.20
2023-04-04T04:36:07.387Z,69.91
2023-04-04T04:38:34.665Z,70.43
2023-04-04T04:41:02.797Z,71.59
2023-04-04T04:43:30.603Z,71.64
2023-04-04T04:45:57.496Z,71.30
2023-04-04T04:48:25.294Z,70.72
2023-04-04T04:50:55.766Z,69.84
2023-04-04T04:53:22.696Z,70.43
2023-04-04T04:55:51.705Z,70.54
2023-04-04T04:58:24.982Z,69.48
2023-04-04T05:01:00.229Z,69.00
2023-04-04T05:03:28.696Z,68.83
2023-04-04T05:05:55.576Z,68.58
2023-04-04T05:08:22.739Z,68.74
2023-04-04T05:10:51.163Z,69.18
2023-04-04T05:13:18.989Z,68.33
2023-04-04T05:18:14.581Z,68.51
2023-04-04T05:20:41.885Z,68.13
2023-04-04T05:23:09.547Z,68.33
2023-04-04T05:25:36.581Z,67.87
2023-04-04T05:28:04.181Z,67.59
2023-04-04T05:30:31.412Z,67.64
2023-04-04T05:32:58.221Z,67.46
2023-04-04T05:35:26.447Z,67.68
2023-04-04T05:37:53.226Z,67.58
2023-04-04T05:40:20.735Z,67.37
2023-04-04T05:42:50.298Z,67.10
2023-04-04T05:45:17.076Z,66.79
2023-04-04T05:47:44.576Z,66.78
2023-04-04T05:50:11.813Z,66.56
2023-04-04T05:52:43.143Z,66.76
2023-04-04T05:55:10.397Z,66.70
2023-04-04T05:57:40.510Z,66.25
2023-04-04T06:00:10.756Z,65.70
2023-04-04T06:02:38.077Z,65.70
2023-04-04T06:05:06.648Z,66.10
2023-04-04T06:07:34.875Z,64.81
2023-04-04T06:10:01.933Z,64.93
2023-04-04T06:12:28.794Z,63.90
2023-04-04T06:14:55.832Z,63.31
2023-04-04T06:17:22.708Z,62.93
2023-04-04T06:19:50.337Z,62.59
2023-04-04T06:22:18.136Z,62.47
2023-04-04T06:24:44.995Z,61.65
2023-04-04T06:27:15.452Z,61.76
2023-04-04T06:29:43.075Z,61.41
2023-04-04T06:32:14.011Z,61.44
2023-04-04T06:34:40.789Z,61.31
2023-04-04T06:37:07.573Z,60.53
2023-04-04T06:39:34.682Z,60.26
2023-04-04T06:42:01.729Z,60.24
2023-04-04T06:44:31.462Z,59.29
2023-04-04T06:46:58.536Z,58.01
2023-04-04T06:49:25.404Z,57.51
2023-04-04T06:52:01.413Z,57.85
2023-04-04T06:54:28.234Z,56.94
2023-04-04T06:56:56.125Z,57.46
2023-04-04T06:59:23.287Z,57.42
2023-04-04T07:01:50.088Z,57.26
2023-04-04T07:04:20.686Z,57.44
2023-04-04T07:06:47.477Z,57.02
2023-04-04T07:09:25.826Z,56.31
2023-04-04T07:12:01.922Z,57.02
2023-04-04T07:14:28.680Z,55.88
2023-04-04T07:16:55.592Z,54.32
2023-04-04T07:19:28.881Z,53.92
2023-04-04T07:21:56.459Z,53.42
2023-04-04T07:24:23.378Z,53.25
2023-04-04T07:26:52.590Z,53.36
2023-04-04T07:29:19.475Z,53.20
2023-04-04T07:31:46.472Z,52.63
2023-04-04T07:34:13.334Z,52.34
2023-04-04T07:36:40.234Z,52.54
2023-04-04T07:39:07.323Z,51.71
2023-04-04T07:41:34.111Z,51.92
2023-04-04T07:44:03.866Z,51.10
2023-04-04T07:46:30.719Z,50.89
2023-04-04T07:48:57.652Z,51.00
2023-04-04T07:51:29.655Z,50.91
2023-04-04T07:53:57.538Z,51.13
2023-04-04T07:56:24.692Z,50.72
2023-04-04T07:58:51.735Z,50.38
2023-04-04T08:01:18.875Z,50.21
2023-04-04T08:03:46.195Z,49.80
2023-04-04T08:06:13.584Z,49.45
2023-04-04T08:08:41.783Z,48.78
2023-04-04T08:11:08.828Z,48.49
2023-04-04T08:13:35.722Z,48.27
2023-04-04T08:16:02.694Z,48.17
2023-04-04T08:18:29.658Z,48.51
2023-04-04T08:20:57.072Z,47.35
2023-04-04T08:23:24.012Z,46.61
2023-04-04T08:25:51.969Z,45.20
2023-04-04T08:28:18.846Z,46.51
2023-04-04T08:30:45.884Z,44.27
2023-04-04T08:33:12.901Z,42.87
2023-04-04T08:35:39.779Z,43.42
2023-04-04T08:38:08.636Z,43.21
2023-04-04T08:40:35.956Z,42.48
2023-04-04T08:43:08.585Z,41.45
2023-04-04T08:45:36.171Z,42.00
2023-04-04T08:48:05.303Z,42.87
2023-04-04T08:50:32.884Z,42.42
2023-04-04T08:53:01.987Z,41.74
2023-04-04T08:55:28.949Z,40.89
2023-04-04T08:57:56.081Z,41.70
2023-04-04T09:00:24.345Z,43.27
2023-04-04T09:03:34.550Z,40.09
2023-04-04T09:06:02.723Z,39.75
2023-04-04T09:08:31.078Z,42.13
2023-04-04T09:10:58.394Z,39.91
2023-04-04T09:13:25.416Z,40.92
2023-04-04T09:15:59.471Z,37.95
2023-04-04T09:18:26.254Z,40.23
2023-04-04T09:20:53.495Z,40.10
2023-04-04T09:23:21.574Z,42.11
2023-04-04T09:28:21.172Z,40.30
2023-04-04T09:30:49.347Z,41.79
2023-04-04T09:33:18.387Z,42.25
2023-04-04T09:35:49.424Z,43.07
2023-04-04T09:38:17.740Z,43.22
2023-04-04T09:40:45.670Z,42.07
2023-04-04T09:43:13.633Z,40.64
2023-04-04T09:45:46.697Z,40.75
2023-04-04T09:48:32.954Z,40.73
2023-04-04T09:51:00.227Z,39.17
2023-04-04T09:53:28.178Z,40.40
2023-04-04T09:55:56.774Z,40.71
2023-04-04T09:58:28.526Z,40.93
2023-04-04T10:01:04.418Z,41.40
2023-04-04T10:03:31.519Z,39.62
2023-04-04T10:06:06.968Z,40.21
2023-04-04T10:08:35.680Z,40.47
2023-04-04T10:13:41.252Z,39.04
2023-04-04T10:16:09.361Z,38.56
2023-04-04T10:18:37.192Z,38.29
2023-04-04T10:23:37.255Z,38.35
2023-04-04T10:26:04.034Z,38.14
2023-04-04T10:28:31.640Z,39.81
2023-04-04T10:31:10.114Z,39.56
2023-04-04T10:33:50.380Z,39.83
2023-04-04T10:36:22.796Z,39.84
2023-04-04T10:38:50.490Z,40.70
2023-04-04T10:41:20.956Z,39.36
2023-04-04T10:43:50.428Z,37.97
2023-04-04T10:46:21.909Z,38.02
2023-04-04T10:48:50.408Z,37.13
2023-04-04T10:51:17.546Z,36.19
2023-04-04T10:53:45.550Z,35.73
2023-04-04T10:56:13.096Z,35.27
2023-04-04T10:58:42.002Z,34.53
2023-04-04T11:01:09.507Z,34.42
2023-04-04T11:03:50.424Z,33.37
2023-04-04T11:06:20.404Z,33.28
2023-04-04T11:08:50.861Z,35.13
2023-04-04T11:11:22.659Z,35.08
2023-04-04T11:14:02.424Z,35.39
2023-04-04T11:16:46.656Z,35.76
2023-04-04T11:19:15.971Z,35.39
2023-04-04T11:21:47.142Z,33.53
2023-04-04T11:24:15.029Z,33.18
2023-04-04T11:26:43.060Z,34.04
2023-04-04T11:29:09.999Z,34.13
2023-04-04T11:31:45.984Z,35.79
2023-04-04T11:34:14.797Z,35.23
2023-04-04T11:36:45.538Z,35.02
2023-04-04T11:39:20.358Z,34.03
2023-04-04T11:41:49.578Z,34.90
2023-04-04T11:44:17.928Z,36.33
2023-04-04T11:46:51.682Z,34.79
2023-04-04T11:49:26.157Z,36.08
2023-04-04T11:51:53.448Z,34.11
2023-04-04T11:54:20.743Z,32.76
2023-04-04T11:59:23.360Z,33.95
2023-04-04T12:01:54.688Z,35.06
2023-04-04T12:04:23.052Z,33.95
2023-04-04T12:06:52.884Z,34.40
2023-04-04T12:09:20.907Z,33.68
2023-04-04T12:14:26.682Z,32.99
2023-04-04T12:16:55.743Z,30.51
2023-04-04T12:19:26.882Z,31.66
2023-04-04T12:21:57.842Z,32.09
2023-04-04T12:24:24.810Z,33.71
2023-04-04T12:26:53.625Z,32.40
2023-04-04T12:29:22.971Z,35.34
2023-04-04T12:31:52.041Z,36.77
2023-04-04T12:34:21.973Z,37.43
2023-04-04T12:39:16.607Z,37.18
2023-04-04T12:41:50.480Z,35.91
2023-04-04T12:44:30.752Z,35.06
2023-04-04T12:47:08.127Z,36.35
2023-04-04T12:49:44.983Z,36.26
2023-04-04T12:52:30.002Z,34.19
2023-04-04T12:55:08.063Z,32.48
2023-04-04T12:57:36.956Z,32.88
2023-04-04T13:00:06.443Z,32.43
2023-04-04T13:02:36.314Z,31.17
2023-04-04T13:05:08.047Z,29.86
2023-04-04T13:07:43.379Z,32.50
2023-04-04T13:10:15.145Z,31.21
2023-04-04T15:20:28.156Z,29.66
2023-04-04T15:22:55.140Z,29.13
2023-04-04T15:25:22.457Z,29.82
2023-04-04T15:27:51.734Z,31.35
2023-04-04T15:30:23.955Z,30.79
2023-04-04T15:32:54.522Z,29.32
2023-04-04T15:35:21.929Z,31.58
2023-04-04T15:37:51.699Z,28.96
2023-04-04T15:40:20.127Z,29.08
2023-04-04T15:42:47.997Z,30.62
2023-04-04T15:45:18.866Z,29.07
2023-04-04T15:47:46.763Z,30.52
2023-04-04T15:50:14.205Z,30.13
2023-04-04T15:52:43.245Z,29.94
2023-04-04T15:55:17.594Z,27.37
2023-04-04T15:57:45.827Z,28.10
2023-04-04T16:00:14.700Z,29.25
2023-04-04T16:02:42.232Z,29.61
2023-04-04T16:05:09.844Z,31.88
2023-04-04T16:07:37.423Z,31.07
2023-04-04T16:10:09.032Z,32.86
2023-04-04T16:12:35.914Z,33.25
2023-04-04T16:15:12.365Z,36.42
2023-04-04T16:17:39.504Z,36.95
2023-04-04T16:20:07.792Z,35.62
2023-04-04T16:22:34.944Z,34.86
2023-04-04T16:25:12.016Z,36.96
2023-04-04T16:27:38.762Z,38.11
2023-04-04T16:30:06.448Z,37.65
2023-04-04T16:32:34.680Z,37.77
2023-04-04T16:35:01.923Z,37.90
2023-04-04T16:37:28.877Z,38.22
2023-04-04T16:39:56.744Z,37.97
2023-04-04T16:42:25.052Z,36.34
2023-04-04T16:44:51.965Z,36.42
2023-04-04T16:47:18.813Z,36.71
2023-04-04T16:49:47.363Z,36.01
2023-04-04T16:52:15.037Z,36.41
2023-04-04T16:54:45.778Z,35.55
2023-04-04T16:57:15.862Z,36.67
2023-04-04T16:59:42.654Z,32.70
2023-04-04T17:02:09.864Z,33.20
2023-04-04T17:04:44.316Z,32.92
2023-04-04T17:07:11.247Z,32.39
2023-04-04T17:09:38.746Z,33.81
2023-04-04T17:12:08.618Z,35.58
2023-04-04T17:14:35.983Z,36.10
2023-04-04T17:17:03.233Z,35.59
2023-04-04T17:19:30.530Z,35.04
2023-04-04T17:21:58.866Z,34.97
2023-04-04T17:24:27.483Z,38.11
2023-04-04T17:26:58.513Z,38.90
2023-04-04T17:29:27.204Z,39.35
2023-04-04T17:31:55.767Z,40.43
2023-04-04T17:34:23.142Z,40.30
2023-04-04T17:36:51.041Z,40.59
2023-04-04T17:39:18.170Z,40.90
2023-04-04T17:44:16.774Z,41.74
2023-04-04T17:46:47.272Z,41.70
2023-04-04T17:49:19.982Z,42.39
2023-04-04T17:54:16.088Z,42.83
2023-04-04T17:56:47.228Z,42.71
2023-04-04T17:59:15.003Z,43.26
2023-04-04T18:01:42.525Z,43.32
2023-04-04T18:04:10.904Z,43.85
2023-04-04T18:06:40.242Z,44.22
2023-04-04T18:09:09.513Z,44.08
2023-04-04T18:11:37.352Z,44.66
2023-04-04T18:14:04.519Z,44.56
2023-04-04T18:16:38.852Z,44.97
2023-04-04T18:19:10.432Z,45.56
2023-04-04T18:21:38.757Z,45.99
2023-04-04T18:24:08.135Z,45.91
2023-04-04T18:26:34.978Z,47.12
2023-04-04T18:29:02.312Z,46.63
2023-04-04T18:31:29.171Z,47.18
2023-04-04T18:33:56.988Z,47.49
2023-04-04T18:36:24.048Z,47.59
2023-04-04T18:38:50.844Z,48.10
2023-04-04T18:41:17.724Z,48.17
2023-04-04T18:43:47.928Z,48.96
2023-04-04T18:46:14.896Z,49.23
2023-04-04T18:48:42.587Z,49.20
2023-04-04T18:51:09.792Z,49.18
2023-04-04T18:53:36.569Z,49.81
2023-04-04T18:56:04.488Z,49.75
2023-04-04T18:58:34.440Z,50.18
2023-04-04T19:01:04.025Z,50.59
2023-04-04T19:03:38.801Z,50.90
2023-04-04T19:06:06.913Z,51.01
2023-04-04T19:08:38.987Z,51.19
2023-04-04T19:11:06.315Z,51.35
2023-04-04T19:13:33.509Z,51.85
2023-04-04T19:16:00.455Z,51.96
2023-04-04T19:18:27.709Z,52.32
2023-04-04T19:20:54.653Z,52.44
2023-04-04T19:23:21.892Z,52.56
2023-04-04T19:28:15.550Z,53.14
2023-04-04T19:33:18.566Z,53.35
2023-04-04T19:35:54.440Z,54.11
2023-04-04T19:38:33.866Z,54.18
2023-04-04T19:41:02.899Z,54.15
2023-04-04T19:43:31.551Z,53.50
2023-04-04T19:46:05.136Z,53.70
2023-04-04T19:48:42.878Z,53.94
2023-04-04T19:51:40.365Z,54.46
2023-04-04T19:54:18.106Z,55.55
2023-04-04T19:56:46.738Z,55.47
2023-04-04T19:59:50.788Z,55.49
2023-04-04T20:02:33.628Z,55.19
2023-04-04T20:05:22.946Z,56.01
2023-04-04T20:07:50.729Z,55.01
2023-04-04T20:10:37.008Z,55.94
2023-04-04T20:13:06.910Z,55.99
2023-04-04T20:15:50.798Z,55.91
2023-04-04T20:18:23.183Z,56.45
2023-04-04T20:20:50.811Z,57.32
2023-04-04T20:23:21.223Z,57.50
2023-04-04T20:25:47.911Z,58.48
2023-04-04T20:28:44.403Z,59.10
2023-04-04T20:31:20.290Z,60.13
2023-04-04T20:33:47.477Z,60.51
2023-04-04T20:36:39.730Z,60.01
2023-04-04T20:39:45.184Z,59.88
2023-04-04T20:42:26.346Z,60.15
2023-04-04T20:44:54.588Z,59.47
2023-04-04T20:47:39.903Z,60.12
2023-04-04T20:50:19.207Z,60.31
2023-04-04T20:52:50.692Z,60.25
2023-04-04T20:55:21.529Z,61.00
2023-04-04T20:57:50.846Z,60.82
2023-04-04T21:00:29.908Z,61.23
2023-04-04T21:03:01.967Z,60.60
2023-04-04T21:05:31.458Z,60.83
2023-04-04T21:08:00.497Z,60.94
2023-04-04T21:10:27.511Z,61.69
2023-04-04T21:12:58.574Z,61.27
2023-04-04T21:15:38.702Z,61.27
2023-04-04T21:18:11.378Z,60.99
2023-04-04T21:20:47.540Z,61.69
2023-04-04T21:23:41.548Z,63.04
2023-04-04T21:26:22.331Z,62.28
2023-04-04T21:31:17.787Z,63.74
2023-04-04T21:33:46.755Z,64.00
2023-04-04T21:36:26.514Z,64.42
2023-04-04T21:38:55.291Z,64.06
2023-04-04T21:41:33.234Z,64.02
2023-04-04T21:44:05.522Z,63.78
2023-04-04T21:46:34.908Z,62.33
2023-04-04T21:49:02.261Z,62.79
2023-04-04T21:51:29.236Z,62.99
2023-04-04T21:53:56.907Z,61.75
2023-04-04T21:56:27.624Z,62.46
2023-04-04T21:58:55.030Z,62.73
2023-04-04T22:01:22.156Z,62.57
2023-04-04T22:06:16.084Z,62.37
2023-04-04T22:08:43.629Z,62.74
2023-04-04T22:11:19.323Z,63.34
2023-04-04T22:16:17.141Z,61.97
2023-04-04T22:21:16.714Z,60.45
2023-04-04T22:23:44.882Z,61.17
2023-04-04T22:26:20.513Z,60.38
2023-04-04T22:31:15.294Z,61.91
2023-04-04T22:33:42.151Z,62.02
2023-04-04T22:36:10.492Z,61.64
2023-04-04T22:38:39.703Z,61.96
2023-04-04T22:41:06.614Z,62.44
2023-04-04T22:43:34.021Z,62.80
2023-04-04T22:46:00.827Z,64.37
2023-04-04T22:48:30.883Z,64.72
2023-04-04T22:50:59.133Z,66.11
2023-04-04T22:53:29.452Z,66.37
2023-04-04T22:56:00.970Z,67.19
2023-04-04T22:58:27.713Z,66.77
2023-04-04T23:00:54.729Z,67.84
2023-04-04T23:03:21.636Z,67.63
2023-04-04T23:08:16.797Z,67.77
2023-04-04T23:10:43.993Z,66.30
2023-04-04T23:13:10.793Z,66.14
2023-04-04T23:15:38.138Z,64.22
2023-04-04T23:18:05.598Z,66.18
2023-04-04T23:20:39.921Z,66.15
2023-04-04T23:23:10.286Z,66.46
2023-04-04T23:25:37.149Z,66.58
2023-04-04T23:28:04.247Z,65.85
2023-04-04T23:30:33.986Z,68.37
2023-04-04T23:33:01.298Z,69.08
2023-04-04T23:35:28.285Z,68.87
2023-04-04T23:37:55.051Z,70.49
2023-04-04T23:40:21.868Z,70.42
2023-04-04T23:42:51.117Z,70.93
2023-04-04T23:45:18.238Z,72.40
2023-04-04T23:47:45.282Z,72.79
2023-04-04T23:50:12.342Z,72.38
2023-04-04T23:52:40.604Z,73.73
2023-04-04T23:55:08.171Z,73.75
2023-04-04T23:57:35.018Z,74.67
